createdAt,value
2022-07-26T00:01:22.445Z,206.12766
2022-07-26T00:06:24.213Z,238.73684
2022-07-26T00:11:26.077Z,208.37768
2022-07-26T00:16:27.752Z,231.85047
2022-07-26T00:21:29.426Z,192.3871
2022-07-26T00:26:31.037Z,210.66667
2022-07-26T00:31:32.756Z,177.33333
2022-07-26T00:36:34.472Z,203.91561
2022-07-26T00:41:37.810Z,211.82609
2022-07-26T00:46:39.498Z,208.37768
2022-07-26T00:51:41.317Z,224
2022-07-26T00:56:43.138Z,217.77778
2022-07-26T01:01:44.895Z,233.20188
2022-07-26T01:06:46.587Z,196.45902
2022-07-26T01:11:48.215Z,207.24786
2022-07-26T01:16:50.452Z,187.47826
2022-07-26T01:21:52.087Z,152.10811
2022-07-26T01:26:53.684Z,182.75969
2022-07-26T01:31:55.388Z,222.73303
2022-07-26T01:36:56.994Z,195.42857
2022-07-26T01:41:58.856Z,180.01533
2022-07-26T01:47:00.437Z,165.58273
2022-07-26T01:52:02.089Z,165.58273
2022-07-26T01:57:03.824Z,183.68872
2022-07-26T02:02:05.616Z,174.71161
2022-07-26T02:07:13.245Z,164
2022-07-26T02:12:15.026Z,198.54545
2022-07-26T02:17:16.670Z,201.74059
2022-07-26T02:22:18.385Z,181.83784
2022-07-26T02:27:20.085Z,170.47059
2022-07-26T02:32:21.815Z,157.88889
2022-07-26T02:37:23.404Z,194.4065
2022-07-26T02:42:25.053Z,167.18841
2022-07-26T02:47:26.652Z,190.4
2022-07-26T02:52:28.411Z,160.90141
2022-07-26T02:57:30.045Z,160.14035
2022-07-26T03:02:47.404Z,144
2022-07-26T03:07:49.111Z,140.80511
2022-07-26T03:12:50.733Z,138.32177
2022-07-26T03:17:52.661Z,122.03468
2022-07-26T03:22:54.282Z,138.32177
2022-07-26T03:27:55.949Z,140.17834
2022-07-26T03:32:58.002Z,142.70968
2022-07-26T03:37:59.636Z,131.23404
2022-07-26T03:43:01.264Z,134.71207
2022-07-26T03:48:04.578Z,124.64516
2022-07-26T03:53:06.383Z,136.5
2022-07-26T03:58:08.169Z,140.17834
2022-07-26T04:03:09.776Z,136.5
2022-07-26T04:08:12.058Z,158.63415
2022-07-26T04:13:13.705Z,139.55556
2022-07-26T04:18:15.336Z,146.63158
2022-07-26T04:23:17.017Z,132.3792
2022-07-26T04:28:18.659Z,150.02007
2022-07-26T04:33:20.293Z,143.35275
2022-07-26T04:38:21.933Z,140.80511
2022-07-26T04:43:23.549Z,137.71069
2022-07-26T04:48:25.169Z,142.70968
2022-07-26T04:53:26.762Z,142.07074
2022-07-26T04:58:28.370Z,142.70968
2022-07-26T05:03:30.038Z,138.93671
2022-07-26T05:08:31.652Z,146.63158
2022-07-26T05:13:33.250Z,150.02007
2022-07-26T05:18:45.663Z,142.07074
2022-07-26T05:23:50.615Z,146.63158
2022-07-26T05:28:52.230Z,145.96721
2022-07-26T05:33:53.833Z,148.65116
2022-07-26T05:38:55.554Z,142.07074
2022-07-26T05:43:57.149Z,150.71141
2022-07-26T05:48:58.814Z,150.02007
2022-07-26T05:54:00.595Z,147.30033
2022-07-26T05:59:02.240Z,157.14879
2022-07-26T06:04:03.998Z,143.35275
2022-07-26T06:09:05.673Z,142.70968
2022-07-26T06:14:07.277Z,144
2022-07-26T06:19:08.908Z,143.35275
2022-07-26T06:24:10.768Z,142.07074
2022-07-26T06:29:12.744Z,145.96721
2022-07-26T06:34:14.550Z,159.38462
2022-07-26T06:39:16.207Z,152.81356
2022-07-26T06:44:17.814Z,149.33333
2022-07-26T06:49:22.166Z,160.90141
2022-07-26T06:54:24.565Z,148.65116
2022-07-26T06:59:26.404Z,153.52381
2022-07-26T07:04:28.092Z,146.63158
2022-07-26T07:09:29.730Z,147.30033
2022-07-26T07:14:31.466Z,145.96721
2022-07-26T07:19:33.109Z,146.63158
2022-07-26T07:24:34.695Z,149.33333
2022-07-26T07:29:36.281Z,148.65116
2022-07-26T07:34:37.891Z,146.63158
2022-07-26T07:39:39.518Z,147.30033
2022-07-26T07:44:43.033Z,144.65147
2022-07-26T07:49:44.667Z,159.38462
2022-07-26T07:54:46.277Z,152.10811
2022-07-26T07:59:47.906Z,154.9589
2022-07-26T08:04:49.482Z,147.97351
2022-07-26T08:09:51.829Z,147.97351
2022-07-26T08:14:53.452Z,149.33333
2022-07-26T08:19:59.784Z,151.40741
2022-07-26T08:25:02.427Z,148.65116
2022-07-26T08:30:04.093Z,147.30033
2022-07-26T08:35:17.671Z,154.23891
2022-07-26T08:40:21.564Z,147.30033
2022-07-26T08:45:23.389Z,136.5
2022-07-26T08:50:25.093Z,132.95706
2022-07-26T08:55:32.269Z,128.43114
2022-07-26T09:00:41.747Z,122.55072
2022-07-26T09:05:43.421Z,126.78932
2022-07-26T09:10:45.067Z,132.95706
2022-07-26T09:15:46.710Z,128.98498
2022-07-26T09:20:48.366Z,134.71207
2022-07-26T09:25:50.144Z,142.07074
2022-07-26T09:30:51.841Z,134.12346
2022-07-26T09:35:53.474Z,135.90031
2022-07-26T09:40:55.116Z,138.93671
2022-07-26T09:45:56.702Z,138.93671
2022-07-26T09:50:58.474Z,142.70968
2022-07-26T09:56:00.065Z,142.07074
2022-07-26T10:01:02.586Z,143.35275
2022-07-26T10:06:04.324Z,145.96721
2022-07-26T10:11:05.957Z,147.30033
2022-07-26T10:16:08.031Z,145.30719
2022-07-26T10:21:10.196Z,148.65116
2022-07-26T10:26:11.789Z,144
2022-07-26T10:31:13.890Z,144
2022-07-26T10:36:15.700Z,144
2022-07-26T10:41:17.381Z,152.10811
2022-07-26T10:46:19.147Z,161.66784
2022-07-26T10:51:20.865Z,152.10811
2022-07-26T10:56:22.510Z,149.33333
2022-07-26T11:01:24.210Z,148.65116
2022-07-26T11:06:25.897Z,146.63158
2022-07-26T11:11:27.568Z,147.30033
2022-07-26T11:16:29.252Z,146.63158
2022-07-26T11:21:30.859Z,146.63158
2022-07-26T11:26:33.541Z,148.65116
2022-07-26T11:31:50.384Z,148.65116
2022-07-26T11:36:59.699Z,150.02007
2022-07-26T11:42:01.303Z,146.63158
2022-07-26T11:47:02.905Z,145.96721
2022-07-26T11:52:04.525Z,150.02007
2022-07-26T11:57:06.129Z,149.33333
2022-07-26T12:02:07.736Z,145.96721
2022-07-26T12:07:09.566Z,147.97351
2022-07-26T12:12:11.162Z,145.30719
2022-07-26T12:17:12.742Z,145.96721
2022-07-26T12:22:14.398Z,150.71141
2022-07-26T12:27:16.031Z,149.33333
2022-07-26T12:32:17.647Z,150.02007
2022-07-26T12:37:19.269Z,152.10811
2022-07-26T12:42:21.364Z,149.33333
2022-07-26T12:47:23.141Z,149.33333
2022-07-26T12:52:24.760Z,147.97351
2022-07-26T12:57:26.474Z,150.02007
2022-07-26T13:02:28.076Z,147.97351
2022-07-26T13:07:29.817Z,151.40741
2022-07-26T13:12:31.461Z,150.71141
2022-07-26T13:17:33.051Z,147.97351
2022-07-26T13:22:34.643Z,148.65116
2022-07-26T13:27:39.112Z,147.97351
2022-07-26T13:32:43.457Z,150.02007
2022-07-26T13:37:45.057Z,151.40741
2022-07-26T13:42:46.697Z,153.52381
2022-07-26T13:47:48.309Z,155.68385
2022-07-26T13:52:49.939Z,155.68385
2022-07-26T13:57:55.768Z,152.81356
2022-07-26T14:02:59.526Z,155.68385
2022-07-26T14:08:01.276Z,163.21708
2022-07-26T14:13:02.885Z,166.38267
2022-07-26T14:18:04.494Z,168
2022-07-26T14:23:06.227Z,166.38267
2022-07-26T14:28:07.848Z,168
2022-07-26T14:33:09.411Z,165.58273
2022-07-26T14:38:10.984Z,168
2022-07-26T14:43:12.583Z,170.47059
2022-07-26T14:48:26.956Z,168.81752
2022-07-26T14:53:46.034Z,174.71161
2022-07-26T14:58:47.802Z,171.30627
2022-07-26T15:03:49.379Z,173.85075
2022-07-26T15:08:50.992Z,172.14815
2022-07-26T15:13:52.626Z,171.30627
2022-07-26T15:18:54.230Z,171.30627
2022-07-26T15:23:55.831Z,172.14815
2022-07-26T15:28:57.462Z,169.64103
2022-07-26T15:33:59.080Z,164
2022-07-26T15:39:15.610Z,164.78853
2022-07-26T15:44:18.279Z,166.38267
2022-07-26T15:49:20.032Z,167.18841
2022-07-26T15:54:21.734Z,164.78853
2022-07-26T15:59:23.368Z,167.18841
2022-07-26T16:04:24.998Z,173.85075
2022-07-26T16:09:26.718Z,172.99628
2022-07-26T16:14:28.296Z,174.71161
2022-07-26T16:19:29.937Z,172.99628
2022-07-26T16:24:31.525Z,179.1145
2022-07-26T16:29:33.180Z,175.57895
2022-07-26T16:34:34.772Z,180.92308
2022-07-26T16:39:36.560Z,176.45283
2022-07-26T16:44:38.204Z,177.33333
2022-07-26T16:49:39.811Z,181.83784
2022-07-26T16:54:41.468Z,179.1145
2022-07-26T16:59:43.049Z,177.33333
2022-07-26T17:04:44.661Z,180.92308
2022-07-26T17:09:46.362Z,180.92308
2022-07-26T17:14:48.000Z,180.92308
2022-07-26T17:19:49.635Z,180.92308
2022-07-26T17:24:51.551Z,182.75969
2022-07-26T17:29:53.224Z,180.01533
2022-07-26T17:34:54.827Z,184.625
2022-07-26T17:39:57.297Z,188.44444
2022-07-26T17:44:59.352Z,190.4
2022-07-26T17:55:32.796Z,189.41833
2022-07-26T18:00:34.426Z,179.1145
2022-07-26T18:05:41.116Z,185.56863
2022-07-26T18:10:47.603Z,188.44444
2022-07-26T18:15:52.410Z,185.56863
2022-07-26T18:20:54.110Z,194.4065
2022-07-26T18:25:55.729Z,188.44444
2022-07-26T18:30:57.480Z,181.83784
2022-07-26T18:35:59.143Z,192.3871
2022-07-26T18:41:00.784Z,181.83784
2022-07-26T18:46:06.239Z,185.56863
2022-07-26T18:51:08.285Z,183.68872
2022-07-26T18:56:09.923Z,180.92308
2022-07-26T19:01:11.585Z,165.58273
2022-07-26T19:06:13.285Z,173.85075
2022-07-26T19:11:14.891Z,172.99628
2022-07-26T19:16:16.574Z,167.18841
2022-07-26T19:21:18.334Z,166.38267
2022-07-26T19:26:19.974Z,165.58273
2022-07-26T19:31:21.644Z,170.47059
2022-07-26T19:36:26.048Z,168.81752
2022-07-26T19:41:28.122Z,176.45283
2022-07-26T19:46:29.900Z,171.30627
2022-07-26T19:51:31.562Z,180.01533
2022-07-26T19:56:33.217Z,170.47059
2022-07-26T20:01:34.995Z,172.14815
2022-07-26T20:06:36.783Z,183.68872
2022-07-26T20:11:38.389Z,168.81752
2022-07-26T20:16:40.085Z,178.22053
2022-07-26T20:21:41.827Z,196.45902
2022-07-26T20:26:43.437Z,178.22053
2022-07-26T20:31:45.037Z,183.68872
2022-07-26T20:36:46.669Z,185.56863
2022-07-26T20:41:48.276Z,158.63415
2022-07-26T20:46:49.919Z,161.66784
2022-07-26T20:51:51.593Z,157.14879
2022-07-26T20:56:53.228Z,164
2022-07-26T21:01:54.916Z,185.56863
2022-07-26T21:06:56.610Z,164.78853
2022-07-26T21:11:58.204Z,171.30627
2022-07-26T21:16:59.943Z,165.58273
2022-07-26T21:22:01.628Z,183.68872
2022-07-26T21:27:03.252Z,183.68872
2022-07-26T21:32:04.857Z,179.1145
2022-07-26T21:37:06.447Z,172.99628
2022-07-26T21:42:08.068Z,176.45283
2022-07-26T21:47:09.725Z,189.41833
2022-07-26T21:52:11.308Z,189.41833
2022-07-26T21:57:13.063Z,216.56637
2022-07-26T22:02:14.693Z,214.17544
2022-07-26T22:07:22.019Z,201.74059
2022-07-26T22:12:23.632Z,211.82609
2022-07-26T22:17:25.235Z,199.60166
2022-07-26T22:22:26.876Z,215.36564
2022-07-26T22:27:28.540Z,198.54545
2022-07-26T22:32:30.193Z,188.44444
2022-07-26T22:37:31.831Z,194.4065
2022-07-26T22:42:33.452Z,193.39271
2022-07-26T22:47:35.031Z,161.66784
2022-07-26T22:52:36.614Z,188.44444
2022-07-26T22:57:38.201Z,179.1145
2022-07-26T23:02:39.779Z,198.54545
2022-07-26T23:07:41.429Z,198.54545
2022-07-26T23:12:45.331Z,203.91561
2022-07-26T23:17:47.133Z,151.40741
2022-07-26T23:22:48.730Z,189.41833
2022-07-26T23:27:50.384Z,200.66667
2022-07-26T23:32:52.006Z,156.41379
2022-07-26T23:37:53.623Z,177.33333
2022-07-26T23:42:55.220Z,172.14815
2022-07-26T23:47:56.881Z,193.39271
2022-07-26T23:52:58.452Z,180.92308
2022-07-26T23:58:00.067Z,196.45902
